Thursday, January 18, 2018, 11:01 PM EST
Back to Local

KNYC, New York City Central Park

Location: New York, NY, United States Lat: 40.783
Local Time: 11:01 PM EST ( 4:01 GMT) Lon: -73.967
Time Zone: US/Eastern Elev: 157 ft

Show me the last for .
Show Decoded

2018-01-18 21:51 METAR KNYC 190251Z AUTO 30006KT 10SM CLR M03/M11 A3010 RMK AO2 SLP185 T10281111
                 53020 =
2018-01-18 20:51 METAR KNYC 190151Z AUTO 31009KT 10SM CLR M02/M11 A3007 RMK AO2 SLP177 T10221111
                 =
2018-01-18 19:51 METAR KNYC 190051Z AUTO VRB04KT 10SM CLR M02/M11 A3005 RMK AO2 SLP169 T10171106
                 =
2018-01-18 18:51 METAR KNYC 182351Z AUTO VRB05KT 10SM CLR M01/M11 A3004 RMK AO2 SLP165 60000
                 T10111106 10000 21011 53030 PWINO FZRANO $ =
2018-01-18 17:51 METAR KNYC 182251Z AUTO 31007G16KT 280V350 10SM CLR M01/M12 A3001 RMK AO2 SLP154
                 T10061117 PWINO FZRANO $ =
2018-01-18 16:51 METAR KNYC 182151Z AUTO 30009G17KT 280V340 10SM CLR M01/M12 A2996 RMK AO2 SLP139
                 T10061117 PWINO FZRANO $ =
2018-01-18 15:51 METAR KNYC 182051Z AUTO 31009KT 10SM CLR 00/M12 A2995 RMK AO2 SLP135 60000
                 T00001122 55007 PWINO FZRANO $ =
2018-01-18 14:51 METAR KNYC 181951Z AUTO VRB06G15KT 10SM CLR M01/M13 A2994 RMK AO2 SLP132
                 T10061133 PWINO FZRANO $ =
2018-01-18 13:51 METAR KNYC 181851Z AUTO 30007G15KT 250V330 10SM CLR M01/M13 A2995 RMK AO2 SLP134
                 P0000 T10061133 PWINO FZRANO $ =
2018-01-18 12:51 METAR KNYC 181751Z AUTO 32008G17KT 290V360 10SM -SN CLR M01/M14 A2997 RMK AO2
                 SNB48 SLP143 P0000 60000 T10111139 11011 21067 58033 $ =
2018-01-18 11:51 METAR KNYC 181651Z AUTO VRB06KT 10SM CLR M02/M14 A3001 RMK AO2 SNB1553E17 SLP154
                 P0000 T10171139 $ =
2018-01-18 10:51 METAR KNYC 181551Z AUTO 28007KT 250V310 10SM CLR M03/M14 A3006 RMK AO2 SLP171
                 T10331139 $ =
2018-01-18 09:51 METAR KNYC 181451Z AUTO 31007G17KT 10SM CLR M04/M14 A3007 RMK AO2 SLP176
                 T10441144 55006 $ =
2018-01-18 08:51 METAR KNYC 181351Z AUTO 30010G16KT 10SM CLR M06/M13 A3005 RMK AO2 SLP169
                 T10611133 $ =
2018-01-18 07:51 METAR KNYC 181251Z AUTO 28007KT 10SM CLR M06/M13 A3009 RMK AO2 SLP182 T10611133
                 $ =
2018-01-18 06:51 METAR KNYC 181151Z AUTO 30007KT 10SM CLR M07/M13 A3009 RMK AO2 SLP183 70003
                 T10671133 11061 21078 53004 $ =
2018-01-18 05:51 METAR KNYC 181051Z AUTO 10SM CLR M07/M13 A3004 RMK AO2 SLP164 T10721128 $ =
2018-01-18 04:51 METAR KNYC 180951Z AUTO 30004KT 10SM CLR M07/M13 A3006 RMK AO2 SLP174 T10721128
                 $ =
2018-01-18 03:51 METAR KNYC 180851Z AUTO 31008KT 10SM CLR M07/M13 A3008 RMK AO2 PRESFR SLP178
                 T10721128 58024 =
2018-01-18 02:51 METAR KNYC 180751Z AUTO 29008KT 10SM CLR M07/M13 A3013 RMK AO2 SLP195 T10671128
                 =
2018-01-18 01:51 METAR KNYC 180651Z AUTO 29005KT 10SM CLR M06/M13 A3015 RMK AO2 PRESFR SLP202
                 T10611128 =
2018-01-18 00:51 METAR KNYC 180551Z 30007G17KT 10SM CLR M06/M13 A3015 RMK AO2 SLP202 T10611128
                 11028 21061 58018 =
2018-01-18 00:05 METAR KNYC 180505Z AUTO 31008KT 10SM SCT025 M06/M13 A3019 RMK AO2 T10561128 =
2018-01-17 23:51 METAR KNYC 180451Z AUTO VRB05KT 10SM BKN025 M06/M13 A3020 RMK AO2 SLP219
                 T10561128 400221056 =

Support USWX by starting your Amazon purchase here.